Time;durP1;ratioP1;P1;durP2;ratioP2;P2;SDS_P1;SDS_P2;PMS_P1;PMS_P2;Temp;Humidity;BMP_temperature;BMP_pressure;BME280_temperature;BME280_humidity;BME280_pressure;Samples;Min_cycle;Max_cycle;Signal;HPM_P1;HPM_P2
2022/01/21 00:01:37;;;;;;;6.85;3.45;;;;;;;-2.07;100.00;98379.00;1643528;86;21692;-71
2022/01/21 00:04:04;;;;;;;8.53;3.75;;;;;;;-2.05;100.00;98380.39;1661074;86;21502;-71
2022/01/21 00:06:32;;;;;;;8.65;3.45;;;;;;;-2.02;100.00;98381.82;1619669;87;21092;-71
2022/01/21 00:08:59;;;;;;;9.28;3.60;;;;;;;-2.04;100.00;98366.55;1634849;87;21119;-72
2022/01/21 00:11:30;;;;;;;;;;;;;;;-2.02;100.00;98374.61;1642995;86;21131;-73
2022/01/21 00:13:54;;;;;;;;;;;;;;;-2.01;100.00;98372.25;1661671;85;20491;-72
2022/01/21 00:16:24;;;;;;;8.08;3.40;;;;;;;-2.06;100.00;98370.78;1651010;85;20400;-71
2022/01/21 00:19:02;;;;;;;9.98;3.58;;;;;;;-2.07;100.00;98372.33;1649884;85;21087;-72
2022/01/21 00:32:28;;;;;;;6.78;3.33;;;;;;;-2.06;100.00;98368.63;1697740;83;21071;-72
2022/01/21 00:34:55;;;;;;;7.55;3.02;;;;;;;-2.07;100.00;98370.48;1694940;83;21090;-72
2022/01/21 00:37:22;;;;;;;10.03;3.47;;;;;;;-2.06;100.00;98375.30;1707512;83;21128;-71
2022/01/21 00:39:54;;;;;;;7.05;2.83;;;;;;;-2.05;100.00;98372.91;1695556;83;21063;-72
2022/01/21 00:44:50;;;;;;;7.53;3.15;;;;;;;-2.07;100.00;98374.48;1700101;83;21100;-71
2022/01/21 00:47:17;;;;;;;6.47;2.55;;;;;;;-2.08;100.00;98380.03;1705918;84;21645;-72
2022/01/21 00:49:43;;;;;;;9.25;3.25;;;;;;;-2.10;100.00;98383.45;1704765;83;21014;-71
2022/01/21 00:52:09;;;;;;;9.73;3.05;;;;;;;-2.14;100.00;98391.59;1697679;83;21150;-71
2022/01/21 00:54:37;;;;;;;6.58;2.85;;;;;;;-2.16;100.00;98384.34;1696084;84;21427;-72
2022/01/21 00:57:05;;;;;;;8.13;3.55;;;;;;;-2.20;100.00;98373.31;1701349;84;21109;-71
2022/01/21 00:59:32;;;;;;;9.30;3.40;;;;;;;-2.24;100.00;98388.64;1680382;84;21074;-72
2022/01/21 01:01:59;;;;;;;11.20;2.70;;;;;;;-2.28;100.00;98382.94;1691552;83;21044;-71
2022/01/21 01:04:27;;;;;;;10.53;3.02;;;;;;;-2.31;100.00;98393.23;1693936;84;21048;-72
2022/01/21 01:06:54;;;;;;;7.40;2.80;;;;;;;-2.33;100.00;98397.95;1695970;83;21070;-71
2022/01/21 01:09:20;;;;;;;8.75;2.67;;;;;;;-2.37;100.00;98395.45;1694893;84;21040;-72
2022/01/21 01:22:23;;;;;;;6.37;2.37;;;;;;;-2.40;100.00;98384.70;1688181;83;21687;-72
2022/01/21 01:30:03;;;;;;;8.33;3.05;;;;;;;-2.38;100.00;98383.98;1713520;83;21047;-71
2022/01/21 01:32:31;;;;;;;4.95;1.95;;;;;;;-2.40;100.00;98378.55;1697510;83;21099;-72
2022/01/21 01:34:58;;;;;;;6.62;2.15;;;;;;;-2.45;100.00;98387.23;1713681;83;21078;-72
2022/01/21 01:37:38;;;;;;;7.08;2.45;;;;;;;-2.49;100.00;98374.56;1687410;83;21059;-72
2022/01/21 01:40:21;;;;;;;6.58;2.27;;;;;;;-2.52;100.00;98370.50;1690581;84;21035;-71
2022/01/21 01:50:35;;;;;;;9.23;3.22;;;;;;;-2.67;100.00;98355.37;1707304;83;21030;-72
2022/01/21 01:53:03;;;;;;;7.83;2.33;;;;;;;-2.72;100.00;98341.89;1702890;83;21510;-72
2022/01/21 01:55:30;;;;;;;6.67;2.30;;;;;;;-2.75;100.00;98333.02;1695978;82;21065;-72
2022/01/21 01:57:56;;;;;;;6.37;2.35;;;;;;;-2.79;100.00;98333.16;1692293;83;21065;-72
2022/01/21 02:00:23;;;;;;;6.75;1.95;;;;;;;-2.81;100.00;98334.72;1706274;84;21037;-71
2022/01/21 02:02:49;;;;;;;10.45;2.58;;;;;;;-2.85;100.00;98331.37;1702985;83;21066;-71
2022/01/21 02:05:16;;;;;;;7.85;2.47;;;;;;;-2.89;100.00;98335.00;1704675;83;21071;-71
2022/01/21 02:07:42;;;;;;;4.53;1.90;;;;;;;-2.93;100.00;98348.45;1715857;82;21102;-71
2022/01/21 02:10:10;;;;;;;7.53;2.10;;;;;;;-2.95;100.00;98347.87;1702011;83;21087;-71
2022/01/21 02:12:37;;;;;;;6.37;1.70;;;;;;;-2.98;100.00;98344.83;1701394;83;21136;-72
2022/01/21 02:15:05;;;;;;;5.33;2.33;;;;;;;-3.02;100.00;98347.93;1702209;83;21075;-71
2022/01/21 02:22:48;;;;;;;6.37;2.05;;;;;;;-3.05;100.00;98335.03;1699586;83;21575;-72
2022/01/21 02:25:21;;;;;;;6.37;2.05;;;;;;;-3.05;100.00;98341.69;1648795;86;21058;-71
2022/01/21 02:27:50;;;;;;;5.30;1.92;;;;;;;-3.02;100.00;98335.95;1706094;82;21069;-72
2022/01/21 02:30:18;;;;;;;6.45;2.22;;;;;;;-2.96;100.00;98336.09;1703901;83;21030;-71
2022/01/21 02:32:50;;;;;;;7.40;2.33;;;;;;;-2.94;100.00;98324.72;1693494;84;21056;-71
2022/01/21 02:35:17;;;;;;;6.87;2.22;;;;;;;-2.94;100.00;98326.84;1703865;83;21077;-71
2022/01/21 02:37:44;;;;;;;8.45;3.05;;;;;;;-2.91;100.00;98327.77;1698332;83;21105;-72
2022/01/21 02:40:12;;;;;;;7.40;2.27;;;;;;;-2.90;100.00;98328.55;1681332;84;21012;-72
2022/01/21 02:42:41;;;;;;;7.85;2.62;;;;;;;-2.89;100.00;98316.36;1676173;84;21092;-71
2022/01/21 02:45:09;;;;;;;7.45;2.70;;;;;;;-2.86;100.00;98324.41;1656220;86;21050;-72
2022/01/21 02:47:35;;;;;;;8.83;3.35;;;;;;;-2.91;100.00;98300.31;1634114;86;21147;-71
2022/01/21 02:50:04;;;;;;;6.53;2.87;;;;;;;-2.93;100.00;98303.19;1641026;85;21095;-71
2022/01/21 02:52:40;;;;;;;6.15;2.90;;;;;;;-2.96;100.00;98301.48;1661770;85;21082;-72
2022/01/21 02:54:59;;;;;;;7.85;3.12;;;;;;;-3.00;100.00;98307.76;1696307;84;21034;-71
2022/01/21 02:57:26;;;;;;;5.78;2.30;;;;;;;-3.06;100.00;98312.12;1646223;86;21124;-72
2022/01/21 02:59:54;;;;;;;8.43;2.40;;;;;;;-3.08;100.00;98310.70;1699624;84;21539;-71
2022/01/21 03:02:20;;;;;;;5.97;1.82;;;;;;;-3.11;100.00;98309.30;1665598;85;21594;-71
2022/01/21 03:04:59;;;;;;;6.92;1.87;;;;;;;-3.11;100.00;98296.50;1702215;84;21087;-72
2022/01/21 03:07:16;;;;;;;8.03;1.90;;;;;;;-3.09;100.00;98292.61;1693948;82;21114;-71
2022/01/21 03:09:43;;;;;;;6.47;2.25;;;;;;;-3.08;100.00;98291.55;1656739;84;21070;-71
2022/01/21 03:12:11;;;;;;;4.85;1.70;;;;;;;-3.02;100.00;98288.54;1678090;85;21150;-72
2022/01/21 03:14:38;;;;;;;5.35;1.65;;;;;;;-2.98;100.00;98280.93;1678156;84;21076;-72
2022/01/21 03:17:05;;;;;;;5.45;1.90;;;;;;;-2.97;100.00;98287.86;1673604;85;21956;-72
2022/01/21 03:19:33;;;;;;;6.70;2.37;;;;;;;-2.93;100.00;98277.89;1698303;84;21598;-72
2022/01/21 03:22:02;;;;;;;5.60;2.10;;;;;;;-2.91;100.00;98274.50;1694686;83;21146;-71
2022/01/21 03:24:28;;;;;;;5.37;2.10;;;;;;;-2.90;100.00;98273.45;1680395;84;21058;-72
2022/01/21 03:26:55;;;;;;;6.40;2.30;;;;;;;-2.90;100.00;98264.64;1695157;82;21043;-72
2022/01/21 03:29:21;;;;;;;7.60;2.42;;;;;;;-2.93;100.00;98263.24;1665185;85;21034;-72
2022/01/21 03:31:48;;;;;;;7.05;2.40;;;;;;;-2.94;100.00;98266.93;1694084;83;21117;-72
2022/01/21 03:34:15;;;;;;;6.90;2.40;;;;;;;-2.99;100.00;98258.81;1696200;84;21000;-72
2022/01/21 03:36:42;;;;;;;7.03;2.47;;;;;;;-3.02;100.00;98271.23;1703073;83;21067;-72
2022/01/21 03:39:10;;;;;;;8.15;2.58;;;;;;;-3.05;100.00;98262.36;1699281;84;21057;-72
2022/01/21 03:41:37;;;;;;;5.30;2.08;;;;;;;-3.12;100.00;98264.28;1707317;83;21526;-72
2022/01/21 03:44:05;;;;;;;10.75;2.47;;;;;;;-3.15;100.00;98270.83;1693228;83;21462;-71
2022/01/21 03:46:32;;;;;;;9.25;2.62;;;;;;;-3.16;100.00;98272.41;1655813;84;21144;-71
2022/01/21 03:49:02;;;;;;;5.50;2.17;;;;;;;-3.19;100.00;98262.98;1669251;84;20988;-71
2022/01/21 03:51:28;;;;;;;7.17;2.42;;;;;;;-3.21;100.00;98260.25;1696242;84;21059;-71
2022/01/21 03:53:54;;;;;;;6.55;2.33;;;;;;;-3.19;100.00;98267.52;1705639;84;21023;-71
2022/01/21 03:56:23;;;;;;;4.47;1.90;;;;;;;-3.21;100.00;98265.06;1701149;83;21063;-71
2022/01/21 03:58:49;;;;;;;7.72;2.62;;;;;;;-3.21;100.00;98260.25;1662076;86;21514;-72
2022/01/21 04:01:17;;;;;;;;;;;;;;;-3.22;100.00;98254.11;1706991;83;21508;-72
2022/01/21 04:03:44;;;;;;;6.10;2.47;;;;;;;-3.23;100.00;98257.02;1704097;84;20416;-72
2022/01/21 04:06:10;;;;;;;7.47;2.50;;;;;;;-3.26;100.00;98258.78;1707423;83;21110;-73
2022/01/21 04:08:37;;;;;;;5.60;2.52;;;;;;;-3.26;100.00;98259.58;1699367;84;21478;-72
2022/01/21 04:11:04;;;;;;;6.08;2.67;;;;;;;-3.22;100.00;98257.28;1697948;84;21070;-72
2022/01/21 04:13:34;;;;;;;6.47;2.70;;;;;;;-3.24;100.00;98248.20;1696827;84;20980;-72
2022/01/21 04:16:03;;;;;;;7.15;2.50;;;;;;;-3.19;100.00;98245.69;1702734;83;21505;-72
2022/01/21 04:18:33;;;;;;;7.78;2.62;;;;;;;-3.15;100.00;98240.22;1705651;84;21135;-72
2022/01/21 04:21:01;;;;;;;8.28;2.87;;;;;;;-3.12;100.00;98243.77;1695180;83;21613;-71
2022/01/21 04:23:29;;;;;;;8.83;2.95;;;;;;;-3.09;100.00;98247.86;1663444;85;21557;-72
2022/01/21 04:25:56;;;;;;;7.53;3.15;;;;;;;-3.11;100.00;98244.59;1701984;83;21608;-73
2022/01/21 04:28:22;;;;;;;;;;;;;;;-3.12;100.00;98246.43;1699974;83;21050;-72
2022/01/21 04:30:49;;;;;;;8.05;2.62;;;;;;;-3.13;100.00;98254.66;1696350;83;20135;-72
2022/01/21 04:33:17;;;;;;;5.15;2.42;;;;;;;-3.14;100.00;98254.34;1642489;86;21593;-72
2022/01/21 04:35:46;;;;;;;7.55;2.60;;;;;;;-3.13;100.00;98244.83;1663573;85;21564;-71
2022/01/21 04:38:16;;;;;;;6.55;2.60;;;;;;;-3.14;100.00;98255.17;1684332;83;21034;-72
2022/01/21 04:40:52;;;;;;;9.33;3.37;;;;;;;-3.15;100.00;98248.20;1695336;84;21092;-72
2022/01/21 04:48:41;;;;;;;7.67;3.08;;;;;;;-3.17;100.00;98242.81;1690944;84;21444;-72
2022/01/21 04:51:28;;;;;;;7.30;2.40;;;;;;;-3.18;100.00;98246.50;1686608;84;21062;-71
2022/01/21 04:56:11;;;;;;;8.40;2.75;;;;;;;-3.11;100.00;98243.26;1784457;78;22765;-68
2022/01/21 04:58:39;;;;;;;7.45;3.20;;;;;;;-3.17;100.00;98247.63;1731794;82;21498;-69
2022/01/21 05:01:06;;;;;;;8.00;2.72;;;;;;;-3.08;100.00;98252.12;1726092;82;21573;-68
2022/01/21 05:03:34;;;;;;;6.65;2.50;;;;;;;-3.06;100.00;98250.90;1736896;82;21030;-69
2022/01/21 05:06:02;;;;;;;6.72;2.50;;;;;;;-3.02;100.00;98253.93;1730992;82;21050;-69
2022/01/21 05:08:31;;;;;;;9.63;3.50;;;;;;;-2.99;100.00;98252.67;1750537;82;21043;-69
2022/01/21 05:10:59;;;;;;;12.40;3.00;;;;;;;-2.98;100.00;98251.12;1748389;82;21066;-69
2022/01/21 05:13:28;;;;;;;6.95;2.60;;;;;;;-2.97;100.00;98255.39;1735665;82;21451;-68
2022/01/21 05:18:30;;;;;;;8.53;2.67;;;;;;;-2.96;100.00;98248.23;1693683;82;21039;-69
2022/01/21 05:20:59;;;;;;;8.90;2.72;;;;;;;-2.95;100.00;98245.88;1724071;82;21086;-70
2022/01/21 05:23:30;;;;;;;7.85;2.80;;;;;;;-2.92;100.00;98253.41;1727604;82;21453;-69
2022/01/21 05:25:57;;;;;;;;;;;;;;;-2.95;100.00;98251.19;1743221;82;21591;-68
2022/01/21 05:28:24;;;;;;;10.13;3.47;;;;;;;-2.94;100.00;98254.95;1735700;81;20418;-68
2022/01/21 05:31:04;;;;;;;9.33;3.10;;;;;;;-2.97;100.00;98249.25;1736451;82;21055;-69
2022/01/21 05:33:33;;;;;;;6.58;2.80;;;;;;;-2.96;100.00;98255.70;1720459;82;21031;-69
2022/01/21 05:36:18;;;;;;;6.37;2.62;;;;;;;-2.95;100.00;98249.34;1740652;82;21121;-70
2022/01/21 05:38:46;;;;;;;5.00;2.30;;;;;;;-2.95;100.00;98251.19;1702459;82;21648;-69
2022/01/21 05:41:14;;;;;;;8.83;3.10;;;;;;;-2.94;100.00;98238.97;1697764;82;21047;-70
2022/01/21 05:44:04;;;;;;;9.08;2.92;;;;;;;-2.91;100.00;98249.72;1747175;80;21046;-70
2022/01/21 05:49:36;;;;;;;6.30;2.90;;;;;;;-2.90;100.00;98257.47;1725164;82;21655;-70
2022/01/21 05:52:16;;;;;;;8.50;2.80;;;;;;;-2.88;100.00;98251.94;1728419;82;21509;-69
2022/01/21 05:54:56;;;;;;;5.65;2.17;;;;;;;-2.83;100.00;98255.55;1704360;83;21026;-70
2022/01/21 05:57:41;;;;;;;7.87;2.83;;;;;;;-2.83;100.00;98242.23;1730733;82;21062;-70
2022/01/21 06:00:09;;;;;;;6.47;2.37;;;;;;;-2.79;100.00;98255.92;1740618;82;21074;-70
2022/01/21 06:02:37;;;;;;;8.53;2.62;;;;;;;-2.78;100.00;98266.88;1737577;82;21070;-68
2022/01/21 06:05:05;;;;;;;6.87;2.80;;;;;;;-2.79;100.00;98258.58;1725389;82;21133;-70
2022/01/21 06:07:32;;;;;;;6.05;2.65;;;;;;;-2.75;100.00;98274.42;1723682;82;21055;-69
2022/01/21 06:09:58;;;;;;;5.50;2.20;;;;;;;-2.78;100.00;98273.53;1732992;82;21436;-69
2022/01/21 06:12:25;;;;;;;6.70;2.47;;;;;;;-2.77;100.00;98260.01;1732827;82;21023;-70
2022/01/21 06:14:52;;;;;;;8.23;2.58;;;;;;;-2.76;100.00;98256.29;1729463;82;21054;-70
2022/01/21 06:17:18;;;;;;;5.50;2.27;;;;;;;-2.78;100.00;98263.70;1736362;82;21090;-72
2022/01/21 06:19:45;;;;;;;6.70;3.10;;;;;;;-2.75;100.00;98271.24;1729913;82;20995;-69
2022/01/21 06:22:12;;;;;;;;;;;;;;;-2.78;100.00;98266.36;1747453;82;21102;-70
2022/01/21 06:24:39;;;;;;;7.62;2.47;;;;;;;-2.78;100.00;98267.70;1751634;82;20114;-70
2022/01/21 06:27:05;;;;;;;7.08;2.37;;;;;;;-2.84;100.00;98261.94;1733465;82;21046;-71
2022/01/21 06:29:32;;;;;;;9.30;2.70;;;;;;;-2.84;100.00;98256.61;1741933;82;21038;-71
2022/01/21 06:31:59;;;;;;;6.00;2.45;;;;;;;-2.84;100.00;98264.59;1736296;82;21113;-71
2022/01/21 06:34:25;;;;;;;7.15;2.15;;;;;;;-2.83;100.00;98264.87;1728551;82;21031;-70
2022/01/21 06:36:52;;;;;;;8.38;2.77;;;;;;;-2.84;100.00;98262.45;1724556;82;21019;-70
2022/01/21 06:39:18;;;;;;;6.90;2.80;;;;;;;-2.85;100.00;98264.29;1724886;80;21023;-70
2022/01/21 06:41:46;;;;;;;8.20;2.80;;;;;;;-2.84;100.00;98267.77;1746053;80;21664;-71
2022/01/21 06:44:14;;;;;;;6.92;2.70;;;;;;;-2.83;100.00;98266.20;1726797;82;21027;-70
2022/01/21 06:46:41;;;;;;;8.25;2.95;;;;;;;-2.81;100.00;98278.80;1725020;82;21030;-71
2022/01/21 06:49:08;;;;;;;7.47;2.83;;;;;;;-2.82;100.00;98276.34;1745575;82;20963;-70
2022/01/21 06:51:34;;;;;;;6.87;2.40;;;;;;;-2.77;100.00;98268.00;1751451;82;21059;-71
2022/01/21 06:54:01;;;;;;;6.40;2.62;;;;;;;-2.71;100.00;98275.61;1740985;80;21066;-71
2022/01/21 06:56:27;;;;;;;5.83;2.67;;;;;;;-2.68;100.00;98270.65;1747974;81;21060;-70
2022/01/21 06:58:54;;;;;;;6.72;2.70;;;;;;;-2.63;100.00;98281.46;1760358;81;21451;-71
2022/01/21 07:01:21;;;;;;;6.50;2.83;;;;;;;-2.54;100.00;98292.10;1702503;83;21061;-69
2022/01/21 07:03:48;;;;;;;;;;;;;;;-2.43;100.00;98277.73;1716310;81;20968;-69
2022/01/21 07:06:14;;;;;;;6.45;2.70;;;;;;;-2.33;100.00;98284.67;1716632;82;20449;-70
2022/01/21 07:08:40;;;;;;;7.28;2.80;;;;;;;-2.32;100.00;98275.13;1722684;82;20984;-70
2022/01/21 07:11:07;;;;;;;9.05;3.12;;;;;;;-2.23;100.00;98276.44;1733193;82;21122;-69
2022/01/21 07:13:34;;;;;;;6.10;2.72;;;;;;;-2.20;100.00;98281.34;1727822;82;21046;-69
2022/01/21 07:16:00;;;;;;;;;;;;;;;-2.19;100.00;98282.95;1714137;82;21454;-70
2022/01/21 07:18:27;;;;;;;5.80;2.77;;;;;;;-2.18;100.00;98290.43;1724939;81;20571;-69
2022/01/21 07:20:53;;;;;;;5.10;2.20;;;;;;;-2.23;100.00;98278.31;1732169;81;21040;-69
2022/01/21 07:23:20;;;;;;;6.22;3.00;;;;;;;-2.20;100.00;98277.34;1728921;81;21016;-68
2022/01/21 07:25:46;;;;;;;4.50;2.47;;;;;;;-2.11;100.00;98284.48;1728600;82;21517;-68
2022/01/21 07:28:12;;;;;;;6.92;2.52;;;;;;;-2.04;100.00;98282.03;1713541;82;21015;-70
2022/01/21 07:30:39;;;;;;;6.72;2.45;;;;;;;-2.01;100.00;98278.91;1725478;82;21055;-70
2022/01/21 07:33:06;;;;;;;5.62;2.30;;;;;;;-1.94;100.00;98275.33;1727681;82;20999;-69
2022/01/21 07:35:33;;;;;;;6.85;2.85;;;;;;;-1.87;100.00;98282.20;1738756;82;21055;-69
2022/01/21 07:37:59;;;;;;;8.70;2.87;;;;;;;-1.81;100.00;98286.64;1734616;82;21034;-69
2022/01/21 07:40:26;;;;;;;6.75;2.62;;;;;;;-1.80;100.00;98276.25;1728011;82;21549;-70
2022/01/21 07:42:53;;;;;;;6.20;2.87;;;;;;;-1.74;100.00;98283.36;1726215;82;21510;-69
2022/01/21 07:45:19;;;;;;;8.08;2.87;;;;;;;-1.68;100.00;98274.95;1725358;82;21636;-69
2022/01/21 07:47:47;;;;;;;6.90;2.80;;;;;;;-1.66;100.00;98283.52;1717424;82;20972;-70
2022/01/21 07:50:14;;;;;;;7.22;2.75;;;;;;;-1.60;100.00;98278.11;1717975;82;21082;-70
2022/01/21 07:52:40;;;;;;;6.58;2.92;;;;;;;-1.54;100.00;98267.84;1715389;82;21589;-70
2022/01/21 07:55:07;;;;;;;6.75;2.55;;;;;;;-1.41;100.00;98272.66;1710064;82;21570;-70
2022/01/21 07:57:34;;;;;;;6.10;2.55;;;;;;;-1.35;100.00;98282.44;1717271;82;21099;-71
2022/01/21 08:00:04;;;;;;;6.72;3.00;;;;;;;-1.32;100.00;98276.63;1741600;81;21063;-70
2022/01/21 08:02:34;;;;;;;8.03;2.98;;;;;;;-1.34;100.00;98274.70;1720006;82;21036;-70
2022/01/21 08:05:03;;;;;;;9.23;3.12;;;;;;;-1.35;100.00;98270.42;1729350;81;21047;-70
2022/01/21 08:07:30;;;;;;;6.58;2.92;;;;;;;-1.40;100.00;98274.30;1714256;82;21079;-69
2022/01/21 08:09:56;;;;;;;5.75;2.30;;;;;;;-1.44;100.00;98264.60;1712008;82;21050;-69
2022/01/21 08:12:23;;;;;;;6.28;2.67;;;;;;;-1.47;100.00;98274.92;1717220;82;21059;-69
2022/01/21 08:14:49;;;;;;;7.95;2.52;;;;;;;-1.48;100.00;98268.77;1720730;82;20963;-69
2022/01/21 08:17:16;;;;;;;5.20;3.08;;;;;;;-1.49;100.00;98262.34;1716413;82;21075;-73
2022/01/21 08:19:42;;;;;;;5.30;2.50;;;;;;;-1.48;100.00;98264.77;1722684;82;21023;-72
2022/01/21 08:22:09;;;;;;;8.18;2.85;;;;;;;-1.48;100.00;98271.95;1731288;81;21644;-71
2022/01/21 08:24:35;;;;;;;9.80;2.55;;;;;;;-1.44;100.00;98267.27;1725001;82;21522;-74
2022/01/21 08:27:03;;;;;;;9.75;2.62;;;;;;;-1.43;100.00;98256.08;1719720;82;21047;-73
2022/01/21 08:29:29;;;;;;;7.33;2.70;;;;;;;-1.47;100.00;98268.25;1720459;82;20976;-73
2022/01/21 08:31:56;;;;;;;8.90;3.10;;;;;;;-1.53;100.00;98265.48;1720404;82;21047;-73
2022/01/21 08:34:22;;;;;;;7.58;2.62;;;;;;;-1.59;100.00;98257.03;1720426;82;21549;-72
2022/01/21 08:36:49;;;;;;;;;;;;;;;-1.61;100.00;98264.98;1729400;82;21435;-72
2022/01/21 08:39:16;;;;;;;11.75;3.25;;;;;;;-1.67;100.00;98262.73;1731032;82;20146;-71
2022/01/21 08:41:43;;;;;;;7.20;2.80;;;;;;;-1.73;100.00;98263.62;1716187;82;21090;-73
2022/01/21 08:44:09;;;;;;;8.80;3.27;;;;;;;-1.70;100.00;98263.16;1725761;82;21068;-72
2022/01/21 08:46:36;;;;;;;10.40;3.12;;;;;;;-1.73;100.00;98262.28;1728171;82;21059;-73
2022/01/21 08:49:07;;;;;;;8.95;3.08;;;;;;;-1.73;100.00;98266.80;1725320;82;21025;-74
2022/01/21 08:51:39;;;;;;;7.83;3.17;;;;;;;-1.71;100.00;98274.08;1719023;82;21126;-72
2022/01/21 08:54:00;;;;;;;8.48;3.35;;;;;;;-1.72;100.00;98273.77;1738127;82;21628;-73
2022/01/21 08:56:26;;;;;;;15.13;3.58;;;;;;;-1.71;100.00;98268.73;1745323;81;21675;-72
2022/01/21 08:58:53;;;;;;;8.15;3.22;;;;;;;-1.73;100.00;98270.29;1733131;82;21607;-73
2022/01/21 09:01:20;;;;;;;10.65;3.87;;;;;;;-1.74;100.00;98259.86;1736004;82;21593;-73
2022/01/21 09:03:46;;;;;;;8.10;3.60;;;;;;;-1.76;100.00;98260.08;1735625;82;21572;-72
2022/01/21 09:06:16;;;;;;;11.68;3.70;;;;;;;-1.80;100.00;98258.91;1739739;80;21537;-71
2022/01/21 09:08:41;;;;;;;7.50;3.47;;;;;;;-1.79;100.00;98261.88;1748528;82;21007;-71
2022/01/21 09:11:08;;;;;;;10.80;3.90;;;;;;;-1.80;100.00;98260.75;1740143;82;21090;-72
2022/01/21 09:13:40;;;;;;;8.98;3.45;;;;;;;-1.80;100.00;98250.91;1742366;82;21002;-72
2022/01/21 09:16:04;;;;;;;12.95;4.10;;;;;;;-1.78;100.00;98250.17;1736849;82;21102;-73
2022/01/21 09:18:45;;;;;;;9.88;3.15;;;;;;;-1.75;100.00;98248.89;1735261;80;20975;-72
2022/01/21 09:21:02;;;;;;;8.20;3.85;;;;;;;-1.73;100.00;98252.95;1742153;82;21110;-71
2022/01/21 09:23:29;;;;;;;12.55;3.77;;;;;;;-1.72;100.00;98251.91;1731601;82;21513;-72
2022/01/21 09:25:55;;;;;;;;;;;;;;;-1.69;100.00;98232.78;1734829;82;21592;-72
2022/01/21 09:28:23;;;;;;;10.23;3.65;;;;;;;-1.69;100.00;98243.45;1746324;82;20154;-71
2022/01/21 09:30:50;;;;;;;11.95;3.30;;;;;;;-1.71;100.00;98242.06;1751189;81;21062;-70
2022/01/21 09:33:17;;;;;;;9.50;3.35;;;;;;;-1.74;100.00;98242.01;1726653;82;21565;-69
2022/01/21 09:35:43;;;;;;;11.38;3.12;;;;;;;-1.71;100.00;98237.55;1722533;82;21641;-70
2022/01/21 09:38:10;;;;;;;11.28;3.47;;;;;;;-1.65;100.00;98251.29;1723296;82;21076;-70
2022/01/21 09:40:42;;;;;;;11.80;3.52;;;;;;;-1.66;100.00;98245.66;1733081;82;21711;-70
2022/01/21 09:43:09;;;;;;;9.05;3.10;;;;;;;-1.63;100.00;98234.52;1743355;82;21553;-70
2022/01/21 09:45:37;;;;;;;11.15;2.77;;;;;;;-1.67;100.00;98240.05;1736676;82;20999;-71
2022/01/21 09:48:05;;;;;;;6.47;2.72;;;;;;;-1.68;100.00;98242.93;1723411;83;21612;-70
2022/01/21 09:50:32;;;;;;;7.80;2.60;;;;;;;-1.69;100.00;98237.30;1739734;82;21007;-70
2022/01/21 09:53:00;;;;;;;9.25;2.83;;;;;;;-1.71;100.00;98234.06;1732232;80;20964;-71
2022/01/21 09:55:26;;;;;;;9.93;3.15;;;;;;;-1.70;100.00;98240.48;1740111;82;20999;-69
2022/01/21 09:57:54;;;;;;;19.30;4.33;;;;;;;-1.69;100.00;98239.97;1733163;82;20983;-71
2022/01/21 10:00:24;;;;;;;15.20;2.95;;;;;;;-1.67;100.00;98234.71;1742289;82;21454;-70
2022/01/21 10:02:51;;;;;;;7.75;2.60;;;;;;;-1.63;100.00;98233.73;1736924;82;21011;-71
2022/01/21 10:05:18;;;;;;;13.45;2.80;;;;;;;-1.62;100.00;98229.48;1725771;82;20964;-72
2022/01/21 10:07:47;;;;;;;9.35;3.00;;;;;;;-1.60;100.00;98243.42;1725471;82;21035;-70
2022/01/21 10:10:15;;;;;;;8.70;2.98;;;;;;;-1.61;100.00;98239.64;1723343;82;21024;-71
2022/01/21 10:12:45;;;;;;;12.95;3.37;;;;;;;-1.60;100.00;98227.93;1735559;82;21051;-71
2022/01/21 10:15:12;;;;;;;8.43;3.10;;;;;;;-1.61;100.00;98232.97;1727151;82;21001;-71
2022/01/21 10:17:42;;;;;;;12.07;2.77;;;;;;;-1.57;100.00;98230.13;1742311;82;21892;-72
2022/01/21 10:20:17;;;;;;;13.30;2.80;;;;;;;-1.54;100.00;98231.81;1737985;82;21034;-70
2022/01/21 10:23:03;;;;;;;11.00;3.05;;;;;;;-1.51;100.00;98224.68;1746942;82;20999;-72
2022/01/21 10:25:30;;;;;;;13.25;2.90;;;;;;;-1.51;100.00;98218.52;1674781;84;21519;-71
2022/01/21 10:28:19;;;;;;;15.38;3.60;;;;;;;-1.53;100.00;98220.11;1730895;82;21046;-72
2022/01/21 10:30:46;;;;;;;14.80;3.35;;;;;;;-1.56;100.00;98219.76;1732598;82;21739;-71
2022/01/21 10:33:22;;;;;;;15.10;3.05;;;;;;;-1.64;100.00;98221.42;1741333;82;21494;-72
2022/01/21 10:35:51;;;;;;;16.48;2.87;;;;;;;-1.69;100.00;98215.95;1735617;82;21622;-70
2022/01/21 10:38:27;;;;;;;12.10;3.22;;;;;;;-1.67;100.00;98210.70;1745810;82;21047;-72
2022/01/21 10:40:51;;;;;;;15.20;3.30;;;;;;;-1.62;100.00;98208.66;1740267;82;21538;-70
2022/01/21 10:43:18;;;;;;;13.65;2.87;;;;;;;-1.60;100.00;98211.40;1724253;82;21498;-71
2022/01/21 10:45:57;;;;;;;14.28;2.42;;;;;;;-1.54;100.00;98216.33;1734019;82;21063;-71
2022/01/21 10:48:27;;;;;;;8.93;3.45;;;;;;;-1.49;100.00;98209.78;1745170;82;21011;-69
2022/01/21 10:51:17;;;;;;;10.32;2.90;;;;;;;-1.48;100.00;98205.23;1733499;81;21066;-69
2022/01/21 10:53:43;;;;;;;12.60;2.95;;;;;;;-1.47;100.00;98202.86;1733826;82;20990;-70
2022/01/21 10:56:15;;;;;;;15.35;3.00;;;;;;;-1.45;100.00;98210.13;1731656;82;21038;-69
2022/01/21 10:58:51;;;;;;;13.98;3.45;;;;;;;-1.44;100.00;98207.22;1752859;82;21000;-70
2022/01/21 11:01:22;;;;;;;17.90;2.62;;;;;;;-1.44;100.00;98197.88;1739994;82;21047;-69
2022/01/21 11:03:59;;;;;;;13.10;2.83;;;;;;;-1.39;100.00;98202.52;1731428;82;21034;-69
2022/01/21 11:06:29;;;;;;;19.42;2.98;;;;;;;-1.32;100.00;98216.05;1735626;82;21578;-70
2022/01/21 11:09:24;;;;;;;14.35;2.52;;;;;;;-1.26;100.00;98195.09;1749377;82;21628;-71
2022/01/21 11:12:14;;;;;;;11.90;2.62;;;;;;;-1.26;100.00;98203.09;1748867;82;21086;-69
2022/01/21 11:14:59;;;;;;;17.87;2.90;;;;;;;-1.23;100.00;98212.48;1731431;82;20987;-69
2022/01/21 11:17:26;;;;;;;16.05;3.15;;;;;;;-1.20;100.00;98209.34;1726234;82;21090;-68
2022/01/21 11:20:13;;;;;;;6.75;2.12;;;;;;;-1.16;100.00;98209.17;1723811;82;21027;-68
2022/01/21 11:22:53;;;;;;;21.68;2.50;;;;;;;-1.17;100.00;98199.02;1732399;82;21090;-68
2022/01/21 11:25:51;;;;;;;13.70;3.50;;;;;;;-1.22;100.00;98208.78;1727251;82;20956;-67
2022/01/21 11:28:28;;;;;;;18.40;2.55;;;;;;;-1.27;100.00;98209.98;1752541;82;21834;-70
2022/01/21 11:30:54;;;;;;;16.62;2.80;;;;;;;-1.39;100.00;98210.53;1742891;82;21046;-69
2022/01/21 11:33:22;;;;;;;;;;;;;;;-1.45;100.00;98208.80;1732014;82;21026;-70
2022/01/21 11:35:50;;;;;;;12.33;2.30;;;;;;;-1.52;100.00;98207.03;1733921;82;20416;-69
2022/01/21 11:38:18;;;;;;;9.75;2.20;;;;;;;-1.53;100.00;98209.44;1753252;82;21676;-69
2022/01/21 11:40:45;;;;;;;9.18;2.15;;;;;;;-1.48;100.00;98213.23;1751752;81;21058;-70
2022/01/21 11:43:11;;;;;;;8.80;2.12;;;;;;;-1.45;100.00;98214.92;1729840;82;20963;-69
2022/01/21 11:50:48;;;;;;;13.22;2.70;;;;;;;-1.21;100.00;98209.89;1708264;82;21054;-69
2022/01/21 11:53:15;;;;;;;20.68;3.05;;;;;;;-1.15;100.00;98220.97;1744928;82;21082;-69
2022/01/21 11:55:47;;;;;;;6.60;2.40;;;;;;;-1.13;100.00;98212.71;1736440;82;21047;-69
2022/01/21 11:58:23;;;;;;;11.90;3.12;;;;;;;-1.12;100.00;98200.99;1753194;82;21007;-70
2022/01/21 12:00:52;;;;;;;15.50;4.03;;;;;;;-1.08;100.00;98210.16;1741822;82;21037;-69
2022/01/21 12:03:22;;;;;;;11.78;2.60;;;;;;;-1.09;100.00;98209.86;1740289;80;20976;-69
2022/01/21 12:05:51;;;;;;;11.05;2.40;;;;;;;-1.07;100.00;98206.45;1740719;82;21047;-70
2022/01/21 12:08:46;;;;;;;16.25;2.50;;;;;;;-1.09;100.00;98210.69;1752450;82;21042;-71
2022/01/21 12:11:37;;;;;;;11.10;2.12;;;;;;;-1.06;100.00;98218.74;1729704;82;21094;-70
2022/01/21 12:14:42;;;;;;;12.15;2.47;;;;;;;-1.12;100.00;98205.00;1744662;82;21074;-69
2022/01/21 12:17:20;;;;;;;10.23;3.20;;;;;;;-1.19;100.00;98214.98;1728088;82;21119;-70
2022/01/21 12:19:43;;;;;;;13.75;3.20;;;;;;;-1.30;100.00;98219.80;1697829;83;21023;-70
2022/01/21 12:22:16;;;;;;;7.60;2.55;;;;;;;-1.40;100.00;98216.39;1736369;82;21101;-69
2022/01/21 12:24:54;;;;;;;9.60;2.90;;;;;;;-1.41;100.00;98216.09;1746851;82;21499;-70
2022/01/21 12:27:23;;;;;;;8.68;2.60;;;;;;;-1.39;100.00;98214.02;1751263;82;21063;-69
2022/01/21 12:29:50;;;;;;;11.12;2.52;;;;;;;-1.36;100.00;98209.55;1740838;82;20967;-69
2022/01/21 12:32:28;;;;;;;7.92;2.62;;;;;;;-1.34;100.00;98203.95;1723862;82;21596;-70
2022/01/21 12:35:08;;;;;;;10.18;2.55;;;;;;;-1.33;100.00;98214.94;1725436;82;21074;-69
2022/01/21 12:38:03;;;;;;;9.18;2.67;;;;;;;-1.33;100.00;98206.41;1748157;82;21070;-68